createdAt,value
2022-08-11T00:00:35.170Z,40.43
2022-08-11T00:01:35.151Z,41.44
2022-08-11T00:02:35.328Z,42.84
2022-08-11T00:03:43.318Z,42.00
2022-08-11T00:04:36.134Z,43.35
2022-08-11T00:05:35.135Z,41.84
2022-08-11T00:06:35.112Z,43.10
2022-08-11T00:07:35.118Z,42.86
2022-08-11T00:08:35.109Z,42.58
2022-08-11T00:09:39.716Z,42.86
2022-08-11T00:10:35.073Z,41.54
2022-08-11T00:11:35.049Z,42.26
2022-08-11T00:12:35.047Z,42.96
2022-08-11T00:13:35.049Z,43.67
2022-08-11T00:14:37.437Z,43.84
2022-08-11T00:15:35.032Z,44.86
2022-08-11T00:16:35.014Z,43.51
2022-08-11T00:17:34.995Z,43.03
2022-08-11T00:18:34.994Z,41.64
2022-08-11T00:20:12.272Z,43.30
2022-08-11T00:20:35.997Z,41.62
2022-08-11T00:22:03.827Z,40.61
2022-08-11T00:22:35.942Z,41.82
2022-08-11T00:23:34.928Z,42.28
2022-08-11T00:24:34.942Z,41.26
2022-08-11T00:25:35.938Z,39.24
2022-08-11T00:26:34.910Z,45.20
2022-08-11T00:27:34.927Z,41.75
2022-08-11T00:28:34.918Z,44.72
2022-08-11T00:29:34.882Z,41.23
2022-08-11T00:30:34.893Z,42.97
2022-08-11T00:31:34.881Z,43.05
2022-08-11T00:32:34.905Z,43.79
2022-08-11T00:33:44.502Z,43.19
2022-08-11T00:34:35.833Z,41.92
2022-08-11T00:35:51.871Z,41.11
2022-08-11T00:36:35.814Z,40.80
2022-08-11T00:37:34.812Z,42.80
2022-08-11T00:38:34.803Z,43.56
2022-08-11T00:39:34.792Z,42.46
2022-08-11T00:40:34.796Z,40.08
2022-08-11T00:41:34.780Z,40.39
2022-08-11T00:42:34.760Z,40.51
2022-08-11T00:43:34.754Z,39.65
2022-08-11T00:44:34.748Z,41.27
2022-08-11T00:45:34.768Z,41.79
2022-08-11T00:46:34.743Z,41.11
2022-08-11T00:47:34.715Z,41.26
2022-08-11T00:48:34.716Z,42.08
2022-08-11T00:49:34.679Z,42.74
2022-08-11T00:50:34.696Z,41.34
2022-08-11T00:52:02.188Z,40.71
2022-08-11T00:52:35.668Z,40.95
2022-08-11T00:53:34.648Z,42.42
2022-08-11T00:54:34.625Z,42.45
2022-08-11T00:55:34.645Z,41.23
2022-08-11T00:56:34.614Z,39.83
2022-08-11T00:57:37.235Z,40.41
2022-08-11T00:58:34.815Z,41.08
2022-08-11T00:59:36.100Z,39.66
2022-08-11T01:00:34.674Z,39.41
2022-08-11T01:01:34.581Z,41.85
2022-08-11T01:02:34.571Z,42.34
2022-08-11T01:03:34.551Z,43.03
2022-08-11T01:04:34.563Z,41.38
2022-08-11T01:05:34.556Z,41.40
2022-08-11T01:06:34.539Z,39.92
2022-08-11T01:08:02.766Z,41.50
2022-08-11T01:08:35.540Z,41.45
2022-08-11T01:09:34.504Z,40.77
2022-08-11T01:10:34.496Z,40.29
2022-08-11T01:11:34.479Z,40.73
2022-08-11T01:12:34.472Z,43.38
2022-08-11T01:13:34.448Z,40.88
2022-08-11T01:14:34.880Z,43.63
2022-08-11T01:15:34.456Z,42.59
2022-08-11T01:16:34.449Z,42.05
2022-08-11T01:17:34.415Z,43.43
2022-08-11T01:18:34.417Z,42.36
2022-08-11T01:19:34.408Z,44.90
2022-08-11T01:20:46.539Z,43.36
2022-08-11T01:21:35.386Z,42.49
2022-08-11T01:22:34.382Z,43.44
2022-08-11T01:23:34.367Z,44.61
2022-08-11T01:24:34.351Z,43.69
2022-08-11T01:25:34.355Z,43.17
2022-08-11T01:26:35.375Z,44.09
2022-08-11T01:27:34.344Z,42.78
2022-08-11T01:28:34.315Z,44.14
2022-08-11T01:29:34.305Z,43.46
2022-08-11T01:30:34.307Z,44.20
2022-08-11T01:31:34.298Z,45.17
2022-08-11T01:32:34.276Z,44.04
2022-08-11T01:33:34.270Z,43.31
2022-08-11T01:34:34.280Z,42.37
2022-08-11T01:35:34.244Z,45.27
2022-08-11T01:36:34.249Z,41.97
2022-08-11T01:37:34.241Z,41.99
2022-08-11T01:38:34.226Z,41.48
2022-08-11T01:39:34.323Z,42.22
2022-08-11T01:40:34.206Z,45.33
2022-08-11T01:41:34.203Z,42.28
2022-08-11T01:42:34.167Z,41.97
2022-08-11T01:43:34.186Z,42.37
2022-08-11T01:44:34.147Z,42.40
2022-08-11T01:45:34.160Z,41.96
2022-08-11T01:46:34.151Z,42.22
2022-08-11T01:47:34.131Z,42.17
2022-08-11T01:48:34.159Z,42.72
2022-08-11T01:50:08.646Z,42.09
2022-08-11T01:50:35.111Z,42.06
2022-08-11T01:51:34.118Z,42.25
2022-08-11T01:52:35.067Z,43.36
2022-08-11T01:53:35.084Z,42.48
2022-08-11T01:54:34.077Z,43.91
2022-08-11T01:55:34.078Z,46.22
2022-08-11T01:56:34.085Z,41.73
2022-08-11T01:57:34.040Z,41.95
2022-08-11T01:58:43.682Z,42.40
2022-08-11T01:59:35.013Z,42.92
2022-08-11T02:00:34.084Z,43.71
2022-08-11T02:01:33.991Z,42.68
2022-08-11T02:02:34.000Z,41.83
2022-08-11T02:03:33.990Z,42.06
2022-08-11T02:04:33.975Z,43.75
2022-08-11T02:05:33.990Z,45.59
2022-08-11T02:06:33.971Z,43.09
2022-08-11T02:07:33.943Z,43.21
2022-08-11T02:08:33.963Z,44.32
2022-08-11T02:09:33.933Z,45.17
2022-08-11T02:10:35.298Z,46.14
2022-08-11T02:11:35.820Z,48.92
2022-08-11T02:12:33.908Z,46.01
2022-08-11T02:13:36.752Z,43.66
2022-08-11T02:14:33.852Z,46.88
2022-08-11T02:15:33.872Z,45.41
2022-08-11T02:16:33.854Z,44.28
2022-08-11T02:17:33.878Z,44.09
2022-08-11T02:18:33.827Z,43.89
2022-08-11T02:19:33.831Z,46.68
2022-08-11T02:20:33.805Z,44.79
2022-08-11T02:21:33.817Z,45.34
2022-08-11T02:22:33.796Z,46.72
2022-08-11T02:24:05.578Z,46.64
2022-08-11T02:24:34.773Z,41.84
2022-08-11T02:25:33.767Z,40.57
2022-08-11T02:26:33.762Z,42.82
2022-08-11T02:27:33.744Z,42.92
2022-08-11T02:28:38.378Z,44.27
2022-08-11T02:29:35.723Z,42.85
2022-08-11T02:30:33.699Z,49.06
2022-08-11T02:32:23.850Z,46.01
2022-08-11T02:32:34.768Z,44.38
2022-08-11T02:33:33.697Z,44.31
2022-08-11T02:34:33.693Z,44.18
2022-08-11T02:35:33.660Z,45.64
2022-08-11T02:36:33.647Z,46.06
2022-08-11T02:37:34.655Z,44.21
2022-08-11T02:38:33.643Z,45.26
2022-08-11T02:39:33.703Z,44.50
2022-08-11T02:40:33.616Z,49.24
2022-08-11T02:41:33.633Z,46.94
2022-08-11T02:42:35.903Z,49.79
2022-08-11T02:43:33.586Z,49.05
2022-08-11T02:44:33.577Z,48.05
2022-08-11T02:45:33.563Z,47.47
2022-08-11T02:46:33.538Z,45.33
2022-08-11T02:47:33.545Z,48.19
2022-08-11T02:48:33.541Z,44.81
2022-08-11T02:49:33.516Z,44.31
2022-08-11T02:50:33.532Z,44.62
2022-08-11T02:51:33.491Z,45.57
2022-08-11T02:52:33.617Z,45.39
2022-08-11T02:53:33.519Z,45.12
2022-08-11T02:54:33.462Z,46.31
2022-08-11T02:55:55.747Z,48.25
2022-08-11T02:56:34.486Z,45.68
2022-08-11T02:57:33.442Z,46.36
2022-08-11T02:58:33.463Z,48.09
2022-08-11T02:59:33.432Z,46.26
2022-08-11T03:00:33.402Z,45.82
2022-08-11T03:01:33.460Z,46.18
2022-08-11T03:02:33.456Z,45.61
2022-08-11T03:03:33.389Z,44.17
2022-08-11T03:04:37.548Z,44.35
2022-08-11T03:05:33.378Z,45.54
2022-08-11T03:06:33.353Z,48.46
2022-08-11T03:07:33.336Z,45.91
2022-08-11T03:08:33.335Z,47.00
2022-08-11T03:09:33.324Z,46.77
2022-08-11T03:10:33.316Z,48.16
2022-08-11T03:11:33.320Z,46.01
2022-08-11T03:12:33.364Z,46.52
2022-08-11T03:13:33.288Z,47.60
2022-08-11T03:14:33.283Z,51.31
2022-08-11T03:15:33.256Z,44.69
2022-08-11T03:16:33.273Z,48.65
2022-08-11T03:17:33.243Z,48.94
2022-08-11T03:18:33.273Z,45.84
2022-08-11T03:19:33.217Z,45.91
2022-08-11T03:20:38.356Z,53.14
2022-08-11T03:21:52.274Z,48.29
2022-08-11T03:22:34.210Z,52.61
2022-08-11T03:23:33.204Z,50.11
2022-08-11T03:24:33.209Z,52.30
2022-08-11T03:25:33.154Z,48.36
2022-08-11T03:26:33.207Z,50.45
2022-08-11T03:27:33.152Z,50.89
2022-08-11T03:28:33.153Z,52.10
2022-08-11T03:29:33.112Z,48.91
2022-08-11T03:30:33.129Z,50.52
2022-08-11T03:31:33.112Z,53.23
2022-08-11T03:32:33.170Z,49.98
2022-08-11T03:33:33.098Z,48.80
2022-08-11T03:34:33.075Z,50.59
2022-08-11T03:35:33.077Z,49.19
2022-08-11T03:36:33.749Z,50.07
2022-08-11T03:37:34.039Z,44.72
2022-08-11T03:38:33.052Z,48.22
2022-08-11T03:39:33.121Z,47.52
2022-08-11T03:40:33.011Z,47.66
2022-08-11T03:42:03.648Z,49.95
2022-08-11T03:42:34.026Z,46.73
2022-08-11T03:43:32.978Z,48.96
2022-08-11T03:44:32.996Z,45.92
2022-08-11T03:45:36.260Z,45.73
2022-08-11T03:46:33.980Z,50.06
2022-08-11T03:47:32.928Z,45.81
2022-08-11T03:48:32.923Z,49.07
2022-08-11T03:49:32.935Z,48.68
2022-08-11T03:50:32.921Z,51.60
2022-08-11T03:51:45.042Z,50.43
2022-08-11T03:52:33.941Z,51.67
2022-08-11T03:53:32.868Z,49.16
2022-08-11T03:54:32.893Z,54.12
2022-08-11T03:55:32.871Z,47.61
2022-08-11T03:56:32.870Z,47.89
2022-08-11T03:57:32.850Z,52.86
2022-08-11T03:58:33.621Z,48.35
2022-08-11T03:59:32.827Z,46.35
2022-08-11T04:00:32.826Z,49.87
2022-08-11T04:01:32.895Z,51.05
2022-08-11T04:02:32.882Z,48.25
2022-08-11T04:03:32.787Z,49.48
2022-08-11T04:04:32.762Z,46.34
2022-08-11T04:05:32.774Z,46.24
2022-08-11T04:06:32.757Z,52.68
2022-08-11T04:07:32.798Z,53.16
2022-08-11T04:08:34.287Z,54.11
2022-08-11T04:09:32.702Z,49.54
2022-08-11T04:10:32.710Z,51.06
2022-08-11T04:11:32.705Z,51.21
2022-08-11T04:12:35.842Z,47.86
2022-08-11T04:13:32.653Z,51.54
2022-08-11T04:14:32.677Z,47.27
2022-08-11T04:15:32.674Z,49.14
2022-08-11T04:16:32.693Z,53.62
2022-08-11T04:17:32.648Z,51.78
2022-08-11T04:18:32.626Z,49.28
2022-08-11T04:19:32.627Z,48.58
2022-08-11T04:20:32.619Z,50.08
2022-08-11T04:21:32.584Z,49.66
2022-08-11T04:22:32.624Z,47.34
2022-08-11T04:24:36.797Z,49.09
2022-08-11T04:24:37.895Z,48.40
2022-08-11T04:25:33.543Z,47.33
2022-08-11T04:26:34.339Z,47.35
2022-08-11T04:27:37.003Z,50.03
2022-08-11T04:28:33.520Z,46.18
2022-08-11T04:29:36.297Z,52.59
2022-08-11T04:30:33.503Z,48.40
2022-08-11T04:31:51.830Z,50.01
2022-08-11T04:32:33.509Z,49.79
2022-08-11T04:33:34.394Z,52.16
2022-08-11T04:34:32.467Z,50.87
2022-08-11T04:35:33.512Z,49.53
2022-08-11T04:36:32.482Z,49.33
2022-08-11T04:37:32.473Z,47.85
2022-08-11T04:38:32.499Z,51.60
2022-08-11T04:39:32.522Z,52.77
2022-08-11T04:40:32.414Z,49.48
2022-08-11T04:41:33.132Z,47.77
2022-08-11T04:42:32.599Z,46.31
2022-08-11T04:43:32.400Z,49.00
2022-08-11T04:44:32.387Z,49.94
2022-08-11T04:45:32.378Z,50.73
2022-08-11T04:46:32.384Z,51.51
2022-08-11T04:47:32.344Z,54.29
2022-08-11T04:48:33.327Z,51.21
2022-08-11T04:49:33.716Z,48.17
2022-08-11T04:50:32.307Z,54.77
2022-08-11T04:51:32.323Z,53.37
2022-08-11T04:52:37.663Z,52.00
2022-08-11T04:53:33.315Z,52.17
2022-08-11T04:54:32.229Z,48.99
2022-08-11T04:55:32.236Z,51.62
2022-08-11T04:56:32.247Z,51.96
2022-08-11T04:57:32.252Z,50.05
2022-08-11T04:58:32.213Z,50.48
2022-08-11T04:59:32.188Z,51.14
2022-08-11T05:00:32.221Z,46.65
2022-08-11T05:01:36.650Z,52.83
2022-08-11T05:02:34.191Z,50.93
2022-08-11T05:03:32.177Z,49.01
2022-08-11T05:04:32.191Z,47.98
2022-08-11T05:05:32.154Z,48.93
2022-08-11T05:06:33.152Z,48.69
2022-08-11T05:07:32.158Z,47.10
2022-08-11T05:08:32.122Z,51.08
2022-08-11T05:09:32.153Z,49.31
2022-08-11T05:10:32.058Z,53.13
2022-08-11T05:11:32.083Z,49.05
2022-08-11T05:12:32.112Z,49.42
2022-08-11T05:13:32.056Z,49.25
2022-08-11T05:14:32.069Z,50.20
2022-08-11T05:15:32.046Z,52.56
2022-08-11T05:16:33.027Z,53.67
2022-08-11T05:17:32.063Z,48.42
2022-08-11T05:18:31.998Z,50.89
2022-08-11T05:19:32.245Z,48.20
2022-08-11T05:20:33.737Z,52.68
2022-08-11T05:21:44.802Z,52.80
2022-08-11T05:22:33.041Z,53.87
2022-08-11T05:23:31.962Z,55.99
2022-08-11T05:24:32.018Z,53.53
2022-08-11T05:26:43.242Z,57.53
2022-08-11T05:26:47.501Z,51.48
2022-08-11T05:27:32.934Z,48.25
2022-08-11T05:28:31.940Z,48.94
2022-08-11T05:29:31.924Z,52.09
2022-08-11T05:30:34.554Z,49.47
2022-08-11T05:31:31.894Z,51.53
2022-08-11T05:32:33.376Z,50.53
2022-08-11T05:33:31.876Z,52.13
2022-08-11T05:34:31.909Z,49.49
2022-08-11T05:36:01.244Z,52.41
2022-08-11T05:36:32.856Z,49.82
2022-08-11T05:37:31.832Z,50.59
2022-08-11T05:38:31.806Z,48.29
2022-08-11T05:39:33.730Z,50.88
2022-08-11T05:40:32.839Z,51.01
2022-08-11T05:41:31.768Z,50.16
2022-08-11T05:42:31.879Z,47.08
2022-08-11T05:43:31.834Z,51.32
2022-08-11T05:44:31.764Z,51.64
2022-08-11T05:45:58.192Z,50.83
2022-08-11T05:46:32.790Z,52.48
2022-08-11T05:47:31.729Z,50.36
2022-08-11T05:48:31.694Z,46.51
2022-08-11T05:49:31.811Z,52.52
2022-08-11T05:50:33.149Z,50.33
2022-08-11T05:51:31.674Z,49.93
2022-08-11T05:52:32.188Z,56.22
2022-08-11T05:53:31.661Z,51.27
2022-08-11T05:54:32.658Z,52.03
2022-08-11T05:55:31.623Z,55.43
2022-08-11T05:56:31.629Z,56.65
2022-08-11T05:57:49.953Z,65.50
2022-08-11T05:58:31.588Z,50.51
2022-08-11T05:59:31.575Z,55.59
2022-08-11T06:00:47.653Z,53.64
2022-08-11T06:01:31.653Z,57.55
2022-08-11T06:02:31.591Z,56.99
2022-08-11T06:03:31.551Z,54.54
2022-08-11T06:04:31.548Z,56.16
2022-08-11T06:05:31.527Z,54.19
2022-08-11T06:06:32.520Z,54.22
2022-08-11T06:07:48.739Z,54.76
2022-08-11T06:08:32.495Z,51.70
2022-08-11T06:09:31.482Z,51.95
2022-08-11T06:10:31.477Z,48.16
2022-08-11T06:11:43.616Z,52.91
2022-08-11T06:12:32.534Z,54.53
2022-08-11T06:13:31.441Z,54.79
2022-08-11T06:14:31.451Z,51.36
2022-08-11T06:15:31.431Z,53.07
2022-08-11T06:16:31.424Z,53.57
2022-08-11T06:17:39.224Z,56.50
2022-08-11T06:18:32.402Z,53.51
2022-08-11T06:19:31.380Z,50.66
2022-08-11T06:20:31.357Z,52.21
2022-08-11T06:21:31.385Z,52.73
2022-08-11T06:22:31.340Z,49.72
2022-08-11T06:23:31.321Z,49.20
2022-08-11T06:24:31.310Z,49.22
2022-08-11T06:25:31.318Z,49.05
2022-08-11T06:26:31.275Z,46.51
2022-08-11T06:27:31.303Z,47.39
2022-08-11T06:28:31.280Z,46.07
2022-08-11T06:29:37.638Z,49.74
2022-08-11T06:30:32.263Z,48.72
2022-08-11T06:31:31.260Z,51.00
2022-08-11T06:32:31.262Z,51.24
2022-08-11T06:33:31.236Z,49.92
2022-08-11T06:34:31.226Z,48.74
2022-08-11T06:35:31.207Z,51.92
2022-08-11T06:36:31.184Z,46.37
2022-08-11T06:37:34.496Z,50.81
2022-08-11T06:38:33.193Z,50.67
2022-08-11T06:39:31.197Z,53.39
2022-08-11T06:40:31.166Z,51.96
2022-08-11T06:41:31.151Z,50.35
2022-08-11T06:42:31.132Z,49.28
2022-08-11T06:43:31.145Z,50.08
2022-08-11T06:44:31.120Z,47.34
2022-08-11T06:45:31.105Z,48.16
2022-08-11T06:46:31.100Z,51.79
2022-08-11T06:47:31.074Z,44.32
2022-08-11T06:48:31.089Z,45.62
2022-08-11T06:49:31.105Z,49.57
2022-08-11T06:50:31.063Z,47.87
2022-08-11T06:51:32.584Z,56.71
2022-08-11T06:52:35.931Z,51.51
2022-08-11T06:53:32.037Z,47.13
2022-08-11T06:54:31.011Z,49.03
2022-08-11T06:55:57.894Z,44.24
2022-08-11T06:56:31.997Z,48.69
2022-08-11T06:57:31.312Z,44.02
2022-08-11T06:58:31.006Z,43.67
2022-08-11T06:59:31.001Z,44.99
2022-08-11T07:00:32.960Z,48.11
2022-08-11T07:01:30.988Z,47.91
2022-08-11T07:02:31.376Z,46.08
2022-08-11T07:03:31.936Z,45.36
2022-08-11T07:04:30.928Z,44.38
2022-08-11T07:05:30.918Z,42.05
2022-08-11T07:06:41.658Z,41.90
2022-08-11T07:07:31.884Z,39.74
2022-08-11T07:08:34.175Z,49.67
2022-08-11T07:09:30.866Z,46.54
2022-08-11T07:10:30.858Z,43.80
2022-08-11T07:11:30.841Z,45.19
2022-08-11T07:12:30.835Z,48.22
2022-08-11T07:13:44.075Z,43.93
2022-08-11T07:14:36.319Z,43.14
2022-08-11T07:16:09.107Z,41.26
2022-08-11T07:16:31.792Z,43.23
2022-08-11T07:17:30.796Z,47.53
2022-08-11T07:18:30.799Z,44.94
2022-08-11T07:19:30.786Z,43.74
2022-08-11T07:20:30.777Z,48.17
2022-08-11T07:22:00.132Z,45.84
2022-08-11T07:22:31.765Z,48.46
2022-08-11T07:23:30.763Z,39.82
2022-08-11T07:24:59.759Z,42.31
2022-08-11T07:25:31.732Z,41.02
2022-08-11T07:26:30.695Z,37.80
2022-08-11T07:27:35.387Z,43.85
2022-08-11T07:28:32.710Z,42.20
2022-08-11T07:29:30.723Z,45.29
2022-08-11T07:30:30.685Z,44.04
2022-08-11T07:31:30.680Z,47.40
2022-08-11T07:32:30.661Z,51.19
2022-08-11T07:34:05.218Z,56.08
2022-08-11T07:34:31.641Z,48.72
2022-08-11T07:35:30.685Z,47.05
2022-08-11T07:36:30.626Z,46.15
2022-08-11T07:37:30.610Z,43.29
2022-08-11T07:38:30.643Z,41.53
2022-08-11T07:39:30.636Z,41.69
2022-08-11T07:40:30.612Z,41.82
2022-08-11T07:41:30.582Z,38.76
2022-08-11T07:42:30.596Z,44.07
2022-08-11T07:43:30.574Z,42.71
2022-08-11T07:44:34.692Z,42.41
2022-08-11T07:45:31.535Z,50.92
2022-08-11T07:46:30.524Z,49.29
2022-08-11T07:47:30.525Z,40.93
2022-08-11T07:48:30.522Z,35.92
2022-08-11T07:49:30.522Z,42.14
2022-08-11T07:50:31.074Z,39.36
2022-08-11T07:51:30.477Z,42.24
2022-08-11T07:52:30.490Z,34.79
2022-08-11T07:53:30.449Z,38.99
2022-08-11T07:54:33.450Z,38.61
2022-08-11T07:55:48.966Z,41.25
2022-08-11T07:56:42.985Z,41.84
2022-08-11T07:57:42.221Z,38.37
2022-08-11T07:58:31.682Z,43.29
2022-08-11T08:00:00.148Z,44.93
2022-08-11T08:00:31.384Z,42.63
2022-08-11T08:01:30.458Z,45.53
2022-08-11T08:02:30.371Z,44.77
2022-08-11T08:03:30.385Z,44.30
2022-08-11T08:04:30.378Z,45.36
2022-08-11T08:05:30.362Z,43.61
2022-08-11T08:06:36.565Z,45.99
2022-08-11T08:07:31.428Z,44.41
2022-08-11T08:08:30.339Z,46.03
2022-08-11T08:09:30.342Z,42.62
2022-08-11T08:10:30.308Z,37.72
2022-08-11T08:11:30.302Z,42.10
2022-08-11T08:12:30.376Z,40.58
2022-08-11T08:13:30.302Z,45.57
2022-08-11T08:14:30.293Z,42.99
2022-08-11T08:15:30.250Z,41.21
2022-08-11T08:16:30.248Z,42.33
2022-08-11T08:17:30.274Z,36.26
2022-08-11T08:18:30.216Z,43.22
2022-08-11T08:19:30.225Z,38.25
2022-08-11T08:20:30.199Z,44.59
2022-08-11T08:21:30.191Z,46.72
2022-08-11T08:22:38.347Z,42.99
2022-08-11T08:23:31.163Z,42.70
2022-08-11T08:24:30.167Z,45.69
2022-08-11T08:25:30.179Z,42.15
2022-08-11T08:26:30.151Z,46.36
2022-08-11T08:27:30.157Z,40.61
2022-08-11T08:28:32.507Z,38.89
2022-08-11T08:29:31.135Z,43.78
2022-08-11T08:30:30.116Z,41.16
2022-08-11T08:31:30.138Z,44.97
2022-08-11T08:32:30.141Z,38.58
2022-08-11T08:33:30.082Z,44.56
2022-08-11T08:34:30.995Z,43.73
2022-08-11T08:35:32.866Z,36.89
2022-08-11T08:36:31.062Z,41.77
2022-08-11T08:37:47.270Z,36.18
2022-08-11T08:38:31.031Z,41.19
2022-08-11T08:39:30.071Z,39.19
2022-08-11T08:40:30.039Z,40.27
2022-08-11T08:41:30.024Z,37.99
2022-08-11T08:42:30.018Z,44.90
2022-08-11T08:43:32.554Z,41.23
2022-08-11T08:44:40.934Z,45.09
2022-08-11T08:45:31.989Z,49.13
2022-08-11T08:46:30.962Z,44.13
2022-08-11T08:47:41.646Z,38.29
2022-08-11T08:48:30.955Z,44.65
2022-08-11T08:49:29.949Z,43.29
2022-08-11T08:50:29.957Z,43.14
2022-08-11T08:51:54.915Z,34.87
2022-08-11T08:52:35.923Z,48.57
2022-08-11T08:53:30.947Z,46.01
2022-08-11T08:54:29.887Z,54.09
2022-08-11T08:55:29.886Z,37.28
2022-08-11T08:56:29.861Z,39.48
2022-08-11T08:57:29.852Z,42.01
2022-08-11T08:58:29.853Z,36.59
2022-08-11T08:59:47.909Z,41.41
2022-08-11T09:00:30.835Z,41.94
2022-08-11T09:01:29.880Z,42.47
2022-08-11T09:02:34.122Z,35.08
2022-08-11T09:04:05.151Z,35.81
2022-08-11T09:04:31.816Z,48.45
2022-08-11T09:05:29.786Z,33.15
2022-08-11T09:06:29.764Z,43.92
2022-08-11T09:07:38.247Z,50.65
2022-08-11T09:08:31.745Z,40.25
2022-08-11T09:09:29.755Z,35.44
2022-08-11T09:10:29.736Z,39.17
2022-08-11T09:11:29.718Z,44.60
2022-08-11T09:12:53.237Z,37.25
2022-08-11T09:13:30.700Z,44.12
2022-08-11T09:14:29.711Z,44.35
2022-08-11T09:15:29.701Z,42.26
2022-08-11T09:16:29.670Z,39.05
2022-08-11T09:17:29.725Z,42.61
2022-08-11T09:18:33.638Z,41.30
2022-08-11T09:19:30.666Z,35.77
2022-08-11T09:20:29.634Z,41.06
2022-08-11T09:21:48.853Z,44.16
2022-08-11T09:22:30.607Z,37.80
2022-08-11T09:24:31.612Z,41.52
2022-08-11T09:25:29.592Z,48.38
2022-08-11T09:26:30.510Z,46.61
2022-08-11T09:27:29.640Z,46.97
2022-08-11T09:28:29.590Z,46.42
2022-08-11T09:29:29.647Z,39.81
2022-08-11T09:30:29.559Z,43.05
2022-08-11T09:31:29.591Z,44.99
2022-08-11T09:32:29.515Z,45.09
2022-08-11T09:33:29.525Z,48.90
2022-08-11T09:34:29.529Z,49.80
2022-08-11T09:35:29.528Z,48.59
2022-08-11T09:36:29.486Z,51.46
2022-08-11T09:37:54.501Z,45.11
2022-08-11T09:38:30.476Z,50.30
2022-08-11T09:39:31.066Z,46.18
2022-08-11T09:40:30.489Z,46.02
2022-08-11T09:42:00.806Z,47.35
2022-08-11T09:42:30.436Z,42.33
2022-08-11T09:43:29.439Z,45.31
2022-08-11T09:44:29.402Z,48.54
2022-08-11T09:45:29.410Z,44.04
2022-08-11T09:46:30.426Z,44.42
2022-08-11T09:47:29.467Z,42.41
2022-08-11T09:48:29.377Z,47.38
2022-08-11T09:49:29.375Z,43.57
2022-08-11T09:50:29.372Z,48.31
2022-08-11T09:51:29.373Z,47.36
2022-08-11T09:52:29.348Z,45.38
2022-08-11T09:53:36.434Z,48.15
2022-08-11T09:54:30.343Z,46.74
2022-08-11T09:55:29.338Z,46.51
2022-08-11T09:56:29.317Z,44.17
2022-08-11T09:57:29.306Z,48.93
2022-08-11T09:58:35.173Z,45.51
2022-08-11T09:59:30.287Z,41.98
2022-08-11T10:00:29.305Z,43.87
2022-08-11T10:01:29.354Z,42.81
2022-08-11T10:02:29.244Z,43.25
2022-08-11T10:03:29.254Z,46.78
2022-08-11T10:04:29.226Z,40.58
2022-08-11T10:05:29.224Z,51.14
2022-08-11T10:06:33.069Z,43.88
2022-08-11T10:07:31.203Z,43.99
2022-08-11T10:08:29.224Z,41.48
2022-08-11T10:09:29.211Z,45.14
2022-08-11T10:10:29.197Z,39.38
2022-08-11T10:11:29.169Z,41.42
2022-08-11T10:12:29.169Z,45.67
2022-08-11T10:14:30.277Z,45.51
2022-08-11T10:14:33.796Z,45.75
2022-08-11T10:15:29.149Z,41.33
2022-08-11T10:16:29.143Z,46.40
2022-08-11T10:17:29.138Z,42.88
2022-08-11T10:18:29.104Z,42.02
2022-08-11T10:19:29.073Z,43.09
2022-08-11T10:20:29.089Z,44.95
2022-08-11T10:21:29.098Z,39.81
2022-08-11T10:22:29.140Z,40.86
2022-08-11T10:23:29.140Z,43.12
2022-08-11T10:24:29.753Z,46.89
2022-08-11T10:25:29.735Z,43.25
2022-08-11T10:26:29.256Z,42.85
2022-08-11T10:27:29.156Z,46.76
2022-08-11T10:28:44.700Z,48.43
2022-08-11T10:29:36.809Z,44.89
2022-08-11T10:30:30.036Z,48.07
2022-08-11T10:31:30.556Z,45.33
2022-08-11T10:32:31.587Z,40.36
2022-08-11T10:33:37.691Z,42.75
2022-08-11T10:34:30.022Z,41.86
2022-08-11T10:35:28.956Z,39.71
2022-08-11T10:36:28.946Z,38.93
2022-08-11T10:38:15.965Z,45.24
2022-08-11T10:38:29.938Z,46.31
2022-08-11T10:39:28.982Z,47.58
2022-08-11T10:40:28.913Z,46.04
2022-08-11T10:41:28.902Z,41.50
2022-08-11T10:42:41.676Z,42.26
2022-08-11T10:44:03.395Z,41.04
2022-08-11T10:44:29.868Z,39.91
2022-08-11T10:45:28.901Z,42.54
2022-08-11T10:46:30.437Z,45.57
2022-08-11T10:47:28.903Z,39.95
2022-08-11T10:48:28.837Z,37.81
2022-08-11T10:49:28.810Z,45.30
2022-08-11T10:50:28.813Z,36.93
2022-08-11T10:51:49.906Z,40.07
2022-08-11T10:52:29.827Z,41.62
2022-08-11T10:53:28.775Z,43.00
2022-08-11T10:54:28.778Z,38.33
2022-08-11T10:55:28.792Z,41.82
2022-08-11T10:56:28.767Z,42.05
2022-08-11T10:57:28.945Z,45.39
2022-08-11T10:58:28.795Z,44.79
2022-08-11T10:59:28.755Z,42.68
2022-08-11T11:00:28.784Z,46.16
2022-08-11T11:01:28.823Z,50.45
2022-08-11T11:02:28.714Z,43.93
2022-08-11T11:03:28.705Z,42.53
2022-08-11T11:04:28.699Z,39.71
2022-08-11T11:05:28.698Z,43.80
2022-08-11T11:06:30.060Z,43.52
2022-08-11T11:07:29.738Z,42.77
2022-08-11T11:08:28.690Z,42.81
2022-08-11T11:09:29.631Z,40.66
2022-08-11T11:10:28.644Z,42.10
2022-08-11T11:11:28.674Z,41.42
2022-08-11T11:12:28.709Z,46.33
2022-08-11T11:13:28.595Z,47.27
2022-08-11T11:14:28.636Z,44.65
2022-08-11T11:15:28.591Z,44.19
2022-08-11T11:16:28.615Z,41.95
2022-08-11T11:17:28.602Z,39.76
2022-08-11T11:18:28.651Z,45.23
2022-08-11T11:19:28.550Z,42.81
2022-08-11T11:20:35.791Z,47.38
2022-08-11T11:21:29.592Z,40.40
2022-08-11T11:22:28.548Z,42.31
2022-08-11T11:23:28.562Z,43.91
2022-08-11T11:24:28.529Z,43.39
2022-08-11T11:25:28.497Z,45.69
2022-08-11T11:26:28.553Z,44.74
2022-08-11T11:27:28.541Z,40.44
2022-08-11T11:28:28.476Z,49.07
2022-08-11T11:29:28.492Z,46.68
2022-08-11T11:30:28.432Z,49.60
2022-08-11T11:31:28.425Z,44.11
2022-08-11T11:32:28.414Z,40.18
2022-08-11T11:33:28.412Z,46.63
2022-08-11T11:34:28.403Z,46.83
2022-08-11T11:35:28.417Z,49.24
2022-08-11T11:36:28.396Z,43.66
2022-08-11T11:37:28.396Z,47.43
2022-08-11T11:38:28.370Z,42.32
2022-08-11T11:39:28.389Z,48.17
2022-08-11T11:40:31.482Z,42.02
2022-08-11T11:41:28.359Z,48.33
2022-08-11T11:42:28.330Z,45.87
2022-08-11T11:43:28.322Z,42.87
2022-08-11T11:44:28.322Z,48.43
2022-08-11T11:45:28.377Z,48.15
2022-08-11T11:46:30.194Z,41.03
2022-08-11T11:47:29.289Z,41.58
2022-08-11T11:48:28.292Z,46.46
2022-08-11T11:49:28.263Z,47.33
2022-08-11T11:50:32.967Z,43.36
2022-08-11T11:51:28.264Z,41.52
2022-08-11T11:52:28.239Z,40.00
2022-08-11T11:53:28.255Z,41.31
2022-08-11T11:54:28.235Z,42.34
2022-08-11T11:55:28.212Z,46.54
2022-08-11T11:56:28.237Z,40.81
2022-08-11T11:57:28.210Z,38.33
2022-08-11T11:58:28.333Z,37.88
2022-08-11T11:59:28.179Z,41.08
2022-08-11T12:00:32.877Z,46.55
2022-08-11T12:01:29.186Z,40.45
2022-08-11T12:02:28.172Z,39.49
2022-08-11T12:03:28.190Z,42.04
2022-08-11T12:04:28.123Z,42.16
2022-08-11T12:05:28.143Z,42.70
2022-08-11T12:06:28.148Z,43.25
2022-08-11T12:07:28.118Z,47.73
2022-08-11T12:08:28.112Z,45.34
2022-08-11T12:09:28.110Z,47.17
2022-08-11T12:10:28.080Z,45.39
2022-08-11T12:11:28.098Z,45.59
2022-08-11T12:12:28.050Z,44.58
2022-08-11T12:13:28.053Z,39.44
2022-08-11T12:14:28.148Z,43.04
2022-08-11T12:16:03.572Z,48.86
2022-08-11T12:16:35.015Z,42.99
2022-08-11T12:17:29.090Z,43.12
2022-08-11T12:18:28.043Z,44.36
2022-08-11T12:19:28.008Z,49.70
2022-08-11T12:20:31.934Z,42.39
2022-08-11T12:21:28.991Z,46.24
2022-08-11T12:22:27.993Z,46.66
2022-08-11T12:23:27.968Z,38.36
2022-08-11T12:24:28.479Z,42.15
2022-08-11T12:25:27.938Z,42.51
2022-08-11T12:26:27.963Z,44.36
2022-08-11T12:27:29.062Z,40.55
2022-08-11T12:28:29.073Z,44.66
2022-08-11T12:29:27.928Z,44.84
2022-08-11T12:30:27.892Z,43.25
2022-08-11T12:31:27.937Z,36.24
2022-08-11T12:32:27.889Z,42.44
2022-08-11T12:33:27.888Z,40.94
2022-08-11T12:34:27.872Z,40.34
2022-08-11T12:35:27.872Z,38.09
2022-08-11T12:36:27.838Z,46.45
2022-08-11T12:37:28.915Z,41.50
2022-08-11T12:38:29.978Z,45.91
2022-08-11T12:40:16.341Z,41.46
2022-08-11T12:40:43.227Z,46.17
2022-08-11T12:41:28.836Z,43.50
2022-08-11T12:42:27.825Z,42.80
2022-08-11T12:43:37.209Z,38.73
2022-08-11T12:44:28.784Z,47.15
2022-08-11T12:45:27.793Z,40.31
2022-08-11T12:46:27.773Z,34.31
2022-08-11T12:47:27.792Z,40.98
2022-08-11T12:49:01.129Z,38.43
2022-08-11T12:49:28.741Z,37.20
2022-08-11T12:50:27.711Z,37.62
2022-08-11T12:51:27.728Z,43.67
2022-08-11T12:52:27.716Z,40.46
2022-08-11T12:53:27.723Z,39.92